Metar z połowy godziny Komunikat METAR ze strony awiacja.imgw.pl Metar G30 EPKS METAR EPKS 240630Z 12017KT 9999 BKN120 15/05 Q1011 RMK 145 053 6/6=